createdAt,value
2022-09-24T00:01:36.497Z,9.40
2022-09-24T00:04:06.319Z,9.40
2022-09-24T00:06:38.970Z,9.40
2022-09-24T00:09:05.717Z,9.40
2022-09-24T00:11:35.507Z,9.40
2022-09-24T00:14:02.306Z,9.40
2022-09-24T00:16:33.758Z,9.40
2022-09-24T00:19:01.761Z,9.40
2022-09-24T00:21:30.961Z,9.40
2022-09-24T00:24:00.189Z,9.40
2022-09-24T00:26:46.072Z,9.40
2022-09-24T00:29:16.719Z,9.40
2022-09-24T00:31:43.513Z,9.40
2022-09-24T00:34:10.801Z,9.40
2022-09-24T00:36:37.895Z,9.30
2022-09-24T00:39:05.627Z,9.30
2022-09-24T00:41:36.633Z,9.30
2022-09-24T00:44:41.241Z,9.30
2022-09-24T00:47:18.649Z,9.40
2022-09-24T00:49:48.033Z,9.40
2022-09-24T00:52:15.303Z,9.40
2022-09-24T00:54:43.124Z,9.40
2022-09-24T00:57:10.015Z,9.40
2022-09-24T00:59:36.821Z,9.40
2022-09-24T01:02:04.774Z,9.30
2022-09-24T01:04:31.795Z,9.30
2022-09-24T01:06:59.123Z,9.30
2022-09-24T01:09:27.365Z,9.30
2022-09-24T01:12:21.979Z,9.30
2022-09-24T01:15:11.923Z,9.30
2022-09-24T01:18:02.458Z,9.30
2022-09-24T01:20:34.988Z,9.30
2022-09-24T01:23:36.692Z,9.40
2022-09-24T01:26:26.227Z,9.40
2022-09-24T01:29:21.775Z,9.40
2022-09-24T01:32:13.639Z,9.40
2022-09-24T01:34:45.113Z,9.40
2022-09-24T01:37:14.719Z,9.40
2022-09-24T01:39:42.605Z,9.30
2022-09-24T01:42:10.971Z,9.30
2022-09-24T01:44:39.738Z,9.30
2022-09-24T01:47:07.367Z,9.30
2022-09-24T01:49:34.122Z,9.30
2022-09-24T01:52:03.462Z,9.30
2022-09-24T01:54:41.242Z,9.30
2022-09-24T01:57:13.431Z,9.30
2022-09-24T02:00:06.351Z,9.30
2022-09-24T02:02:50.102Z,9.30
2022-09-24T02:05:19.758Z,9.30
2022-09-24T02:07:58.396Z,9.30
2022-09-24T02:10:27.076Z,9.30
2022-09-24T02:12:58.363Z,9.30
2022-09-24T02:15:37.322Z,9.30
2022-09-24T02:18:08.043Z,9.30
2022-09-24T02:20:36.015Z,9.30
2022-09-24T02:23:03.923Z,9.40
2022-09-24T02:25:35.227Z,9.40
2022-09-24T02:28:03.196Z,9.40
2022-09-24T02:30:34.238Z,9.30
2022-09-24T02:33:01.094Z,9.30
2022-09-24T02:35:27.812Z,9.30
2022-09-24T02:37:54.522Z,9.30
2022-09-24T02:40:21.471Z,9.20
2022-09-24T02:42:50.146Z,9.20
2022-09-24T02:45:17.147Z,9.30
2022-09-24T02:47:43.838Z,9.30
2022-09-24T02:50:10.599Z,9.30
2022-09-24T02:52:37.397Z,9.30
2022-09-24T02:55:04.950Z,9.30
2022-09-24T02:57:31.667Z,9.30
2022-09-24T02:59:58.388Z,9.30
2022-09-24T03:02:25.207Z,9.30
2022-09-24T03:04:51.982Z,9.30
2022-09-24T03:07:18.769Z,9.30
2022-09-24T03:09:45.516Z,9.30
2022-09-24T03:12:12.682Z,9.30
2022-09-24T03:14:39.483Z,9.30
2022-09-24T03:17:06.181Z,9.30
2022-09-24T03:19:32.880Z,9.30
2022-09-24T03:21:59.582Z,9.30
2022-09-24T03:24:26.376Z,9.30
2022-09-24T03:26:53.121Z,9.30
2022-09-24T03:29:39.795Z,9.30
2022-09-24T03:32:06.478Z,9.30
2022-09-24T03:34:33.182Z,9.30
2022-09-24T03:36:59.881Z,9.30
2022-09-24T03:39:26.618Z,9.30
2022-09-24T03:41:53.325Z,9.30
2022-09-24T03:44:20.035Z,9.30
2022-09-24T03:46:47.106Z,9.30
2022-09-24T03:49:13.860Z,9.30
2022-09-24T03:51:40.624Z,9.30
2022-09-24T03:54:07.490Z,9.30
2022-09-24T03:56:34.271Z,9.30
2022-09-24T03:59:00.995Z,9.30
2022-09-24T04:01:31.233Z,9.30
2022-09-24T04:03:58.179Z,9.30
2022-09-24T04:06:27.009Z,9.30
2022-09-24T04:08:53.845Z,9.30
2022-09-24T04:11:20.592Z,9.30
2022-09-24T04:13:47.300Z,9.30
2022-09-24T04:16:14.087Z,9.30
2022-09-24T04:18:40.802Z,9.30
2022-09-24T04:21:07.645Z,9.30
2022-09-24T04:23:34.405Z,9.30
2022-09-24T04:26:02.226Z,9.30
2022-09-24T04:28:30.499Z,9.30
2022-09-24T04:30:57.926Z,9.30
2022-09-24T04:33:24.971Z,9.20
2022-09-24T04:35:51.662Z,9.20
2022-09-24T04:38:19.621Z,9.20
2022-09-24T04:40:46.798Z,9.20
2022-09-24T04:43:13.736Z,9.10
2022-09-24T04:45:44.150Z,9.10
2022-09-24T04:48:11.290Z,9.10
2022-09-24T04:50:43.278Z,9.10
2022-09-24T04:53:12.375Z,9.10
2022-09-24T04:55:39.497Z,9.10
2022-09-24T04:58:06.272Z,9.10
2022-09-24T05:00:33.538Z,9.10
2022-09-24T05:03:03.573Z,9.10
2022-09-24T05:05:32.175Z,9.10
2022-09-24T05:07:59.150Z,9.10
2022-09-24T05:10:26.575Z,9.10
2022-09-24T05:12:53.578Z,9.10
2022-09-24T05:15:21.681Z,9.10
2022-09-24T05:17:48.457Z,9.10
2022-09-24T05:20:16.882Z,9.10
2022-09-24T05:22:44.910Z,9.10
2022-09-24T05:25:12.567Z,9.10
2022-09-24T05:27:47.504Z,9.10
2022-09-24T05:30:15.161Z,9.10
2022-09-24T05:32:42.302Z,9.10
2022-09-24T05:35:09.719Z,9.10
2022-09-24T05:37:37.796Z,9.10
2022-09-24T05:40:26.618Z,9.20
2022-09-24T05:43:00.003Z,9.20
2022-09-24T05:45:26.711Z,9.20
2022-09-24T05:47:53.524Z,9.20
2022-09-24T05:50:20.788Z,9.30
2022-09-24T05:52:47.499Z,9.30
2022-09-24T05:55:14.320Z,9.30
2022-09-24T05:57:41.103Z,9.40
2022-09-24T06:00:08.164Z,9.50
2022-09-24T06:02:35.084Z,9.50
2022-09-24T06:05:01.912Z,9.60
2022-09-24T06:07:28.614Z,9.60
2022-09-24T06:09:55.403Z,9.60
2022-09-24T06:12:23.546Z,9.60
2022-09-24T06:14:50.255Z,9.70
2022-09-24T06:17:16.938Z,9.70
2022-09-24T06:19:43.650Z,9.80
2022-09-24T06:22:10.410Z,9.80
2022-09-24T06:24:37.160Z,9.90
2022-09-24T06:27:04.245Z,9.90
2022-09-24T06:29:31.543Z,10.00
2022-09-24T06:31:58.258Z,10.00
2022-09-24T06:34:24.958Z,10.00
2022-09-24T06:36:55.080Z,10.10
2022-09-24T06:39:23.781Z,10.10
2022-09-24T06:41:51.460Z,10.20
2022-09-24T06:44:19.215Z,10.20
2022-09-24T06:46:46.117Z,10.30
2022-09-24T06:49:12.958Z,10.40
2022-09-24T06:51:39.929Z,10.40
2022-09-24T06:54:06.626Z,10.50
2022-09-24T06:56:33.366Z,10.60
2022-09-24T06:59:00.129Z,10.70
2022-09-24T07:01:26.897Z,10.70
2022-09-24T07:03:53.964Z,10.80
2022-09-24T07:06:20.753Z,10.90
2022-09-24T07:08:51.240Z,11.00
2022-09-24T07:11:17.974Z,11.10
2022-09-24T07:13:44.730Z,11.10
2022-09-24T07:16:11.463Z,11.20
2022-09-24T07:18:38.693Z,11.40
2022-09-24T07:21:05.603Z,11.50
2022-09-24T07:23:32.340Z,11.60
2022-09-24T07:25:59.154Z,11.70
2022-09-24T07:28:26.066Z,11.90
2022-09-24T07:30:59.707Z,12.00
2022-09-24T07:33:26.541Z,12.10
2022-09-24T07:35:53.243Z,12.20
2022-09-24T07:38:20.046Z,12.30
2022-09-24T07:40:46.838Z,12.40
2022-09-24T07:43:14.745Z,12.50
2022-09-24T07:45:42.531Z,12.60
2022-09-24T07:48:10.215Z,12.70
2022-09-24T07:50:41.392Z,12.80
2022-09-24T07:53:12.618Z,12.90
2022-09-24T07:55:40.957Z,13.00
2022-09-24T07:58:10.965Z,13.10
2022-09-24T08:00:38.736Z,13.20
2022-09-24T08:03:05.903Z,13.30
2022-09-24T08:05:35.402Z,13.40
2022-09-24T08:08:02.122Z,13.50
2022-09-24T08:10:29.033Z,13.60
2022-09-24T08:12:58.875Z,13.70
2022-09-24T08:15:25.942Z,13.80
2022-09-24T08:17:53.046Z,13.90
2022-09-24T08:20:21.009Z,14.10
2022-09-24T08:22:47.739Z,14.20
2022-09-24T08:25:14.589Z,14.40
2022-09-24T08:27:41.340Z,14.50
2022-09-24T08:30:08.772Z,14.70
2022-09-24T08:32:35.551Z,14.80
2022-09-24T08:35:02.293Z,14.90
2022-09-24T08:37:29.167Z,15.00
2022-09-24T08:39:56.065Z,15.10
2022-09-24T08:42:34.869Z,15.10
2022-09-24T08:45:21.061Z,15.20
2022-09-24T08:47:52.930Z,15.20
2022-09-24T08:50:27.133Z,15.20
2022-09-24T08:53:18.529Z,15.20
2022-09-24T08:55:55.650Z,15.30
2022-09-24T08:58:45.931Z,15.50
2022-09-24T09:01:31.901Z,15.60
2022-09-24T09:04:05.082Z,15.80
2022-09-24T09:06:58.864Z,15.90
2022-09-24T09:09:41.446Z,16.00
2022-09-24T09:12:17.682Z,16.10
2022-09-24T09:15:14.405Z,16.30
2022-09-24T09:17:50.326Z,16.30
2022-09-24T09:20:29.672Z,16.20
2022-09-24T09:22:57.545Z,16.20
2022-09-24T09:25:28.507Z,16.10
2022-09-24T09:28:04.913Z,16.10
2022-09-24T09:30:43.374Z,16.10
2022-09-24T09:33:38.402Z,16.10
2022-09-24T09:36:30.794Z,16.10
2022-09-24T09:39:23.130Z,16.10
2022-09-24T09:41:52.735Z,16.10
2022-09-24T09:44:26.286Z,16.10
2022-09-24T09:47:08.215Z,16.20
2022-09-24T09:49:38.510Z,16.20
2022-09-24T09:52:14.952Z,16.20
2022-09-24T09:54:43.343Z,16.20
2022-09-24T09:57:18.043Z,16.30
2022-09-24T09:59:53.700Z,16.30
2022-09-24T10:02:33.894Z,16.40
2022-09-24T10:05:21.030Z,16.40
2022-09-24T10:07:50.238Z,16.50
2022-09-24T10:10:19.496Z,16.60
2022-09-24T10:12:46.476Z,16.60
2022-09-24T10:15:21.799Z,16.70
2022-09-24T10:17:54.382Z,16.80
2022-09-24T10:20:27.642Z,16.80
2022-09-24T10:23:03.364Z,16.80
2022-09-24T10:25:31.657Z,16.80
2022-09-24T10:28:24.799Z,16.70
2022-09-24T10:30:56.856Z,16.60
2022-09-24T10:33:26.450Z,16.60
2022-09-24T10:36:10.817Z,16.50
2022-09-24T10:38:38.773Z,16.40
2022-09-24T10:41:35.892Z,16.40
2022-09-24T10:44:11.777Z,16.30
2022-09-24T10:47:08.115Z,16.20
2022-09-24T10:49:47.676Z,16.20
2022-09-24T10:52:25.385Z,16.20
2022-09-24T10:55:32.263Z,16.20
2022-09-24T10:58:16.418Z,16.30
2022-09-24T11:01:00.754Z,16.30
2022-09-24T11:03:50.270Z,16.40
2022-09-24T11:06:28.903Z,16.50
2022-09-24T11:09:01.588Z,16.60
2022-09-24T11:11:28.925Z,16.60
2022-09-24T11:14:04.555Z,16.60
2022-09-24T11:17:03.184Z,16.60
2022-09-24T11:19:53.367Z,16.50
2022-09-24T11:22:41.428Z,16.50
2022-09-24T11:25:38.708Z,16.50
2022-09-24T11:28:35.907Z,16.50
2022-09-24T11:31:35.445Z,16.40
2022-09-24T11:34:05.719Z,16.40
2022-09-24T11:36:42.140Z,16.40
2022-09-24T11:39:37.671Z,16.40
2022-09-24T11:42:30.288Z,16.30
2022-09-24T11:45:00.802Z,16.40
2022-09-24T11:47:45.109Z,16.40
2022-09-24T11:50:15.464Z,16.40
2022-09-24T11:52:52.653Z,16.50
2022-09-24T11:55:34.210Z,16.50
2022-09-24T11:58:25.373Z,16.60
2022-09-24T12:01:16.778Z,16.70
2022-09-24T12:04:16.717Z,16.90
2022-09-24T12:06:52.242Z,17.10
2022-09-24T12:09:31.021Z,17.20
2022-09-24T12:12:03.669Z,17.20
2022-09-24T12:14:37.337Z,17.20
2022-09-24T12:17:07.459Z,17.10
2022-09-24T12:19:51.200Z,17.10
2022-09-24T12:22:19.667Z,17.10
2022-09-24T12:24:53.983Z,17.00
2022-09-24T12:27:36.540Z,17.00
2022-09-24T12:30:43.729Z,16.90
2022-09-24T12:33:22.480Z,16.80
2022-09-24T12:36:02.255Z,16.70
2022-09-24T12:38:31.001Z,16.70
2022-09-24T12:41:20.749Z,16.60
2022-09-24T12:44:02.910Z,16.60
2022-09-24T12:46:46.869Z,16.60
2022-09-24T12:49:35.674Z,16.60
2022-09-24T12:52:16.452Z,16.50
2022-09-24T12:54:44.194Z,16.40
2022-09-24T12:57:24.937Z,16.30
2022-09-24T13:00:04.902Z,16.30
2022-09-24T13:02:52.787Z,16.30
2022-09-24T13:05:22.618Z,16.30
2022-09-24T13:08:11.603Z,16.20
2022-09-24T13:10:38.575Z,16.20
2022-09-24T13:13:29.642Z,16.10
2022-09-24T13:16:04.856Z,16.10
2022-09-24T13:18:35.767Z,16.10
2022-09-24T13:21:08.239Z,16.00
2022-09-24T13:23:38.365Z,16.00
2022-09-24T13:26:09.313Z,16.00
2022-09-24T13:28:48.600Z,16.00
2022-09-24T13:31:21.861Z,16.00
2022-09-24T13:33:51.813Z,16.00
2022-09-24T13:36:25.815Z,15.90
2022-09-24T13:39:23.061Z,15.90
2022-09-24T13:42:14.060Z,15.90
2022-09-24T13:45:09.725Z,15.80
2022-09-24T13:47:42.635Z,15.80
2022-09-24T13:50:18.113Z,15.70
2022-09-24T13:52:48.866Z,15.70
2022-09-24T13:55:22.862Z,15.60
2022-09-24T13:57:49.777Z,15.50
2022-09-24T14:00:19.772Z,15.50
2022-09-24T14:02:58.671Z,15.40
2022-09-24T14:05:26.230Z,15.40
2022-09-24T14:07:59.417Z,15.30
2022-09-24T14:10:26.510Z,15.30
2022-09-24T14:13:21.751Z,15.30
2022-09-24T14:15:56.328Z,15.30
2022-09-24T14:18:24.039Z,15.30
2022-09-24T14:21:39.040Z,15.20
2022-09-24T14:24:16.823Z,15.20
2022-09-24T14:26:48.560Z,15.20
2022-09-24T14:29:22.562Z,15.20
2022-09-24T14:31:51.889Z,15.10
2022-09-24T14:34:34.200Z,15.10
2022-09-24T14:37:10.391Z,15.10
2022-09-24T14:39:43.164Z,15.10
2022-09-24T14:42:21.649Z,15.00
2022-09-24T14:44:49.009Z,15.00
2022-09-24T14:47:30.814Z,15.00
2022-09-24T14:49:57.703Z,14.90
2022-09-24T14:52:33.109Z,14.90
2022-09-24T14:55:20.715Z,14.90
2022-09-24T14:57:51.753Z,14.80
2022-09-24T15:00:26.505Z,14.80
2022-09-24T15:03:17.444Z,14.80
2022-09-24T15:05:46.112Z,14.70
2022-09-24T15:08:22.297Z,14.70
2022-09-24T15:11:08.134Z,14.70
2022-09-24T15:13:36.745Z,14.60
2022-09-24T15:16:05.842Z,14.50
2022-09-24T15:18:35.373Z,14.50
2022-09-24T15:21:06.264Z,14.40
2022-09-24T15:23:33.194Z,14.40
2022-09-24T15:25:59.986Z,14.40
2022-09-24T15:28:29.093Z,14.30
2022-09-24T15:30:56.838Z,14.30
2022-09-24T15:33:23.847Z,14.30
2022-09-24T15:35:50.717Z,14.20
2022-09-24T15:38:18.931Z,14.20
2022-09-24T15:40:51.347Z,14.20
2022-09-24T15:43:23.390Z,14.10
2022-09-24T15:45:50.954Z,14.10
2022-09-24T15:48:17.846Z,14.10
2022-09-24T15:50:46.327Z,14.10
2022-09-24T15:53:26.096Z,14.10
2022-09-24T15:55:55.252Z,14.00
2022-09-24T15:58:23.105Z,14.00
2022-09-24T16:00:50.343Z,14.00
2022-09-24T16:03:27.869Z,14.00
2022-09-24T16:05:55.182Z,13.90
2022-09-24T16:08:22.312Z,13.90
2022-09-24T16:10:49.578Z,13.90
2022-09-24T16:13:17.378Z,13.90
2022-09-24T16:15:44.115Z,13.90
2022-09-24T16:18:15.970Z,13.80
2022-09-24T16:20:43.261Z,13.80
2022-09-24T16:23:14.943Z,13.80
2022-09-24T16:25:56.350Z,13.80
2022-09-24T16:28:24.330Z,13.70
2022-09-24T16:30:51.258Z,13.70
2022-09-24T16:33:18.132Z,13.70
2022-09-24T16:35:45.090Z,13.70
2022-09-24T16:38:11.957Z,13.70
2022-09-24T16:40:38.838Z,13.70
2022-09-24T16:43:05.597Z,13.60
2022-09-24T16:45:32.776Z,13.60
2022-09-24T16:47:59.902Z,13.60
2022-09-24T16:50:26.937Z,13.60
2022-09-24T16:52:55.336Z,13.60
2022-09-24T16:55:26.276Z,13.60
2022-09-24T16:57:54.308Z,13.60
2022-09-24T17:00:21.050Z,13.50
2022-09-24T17:02:47.906Z,13.50
2022-09-24T17:05:14.771Z,13.50
2022-09-24T17:07:41.543Z,13.50
2022-09-24T17:10:13.594Z,13.50
2022-09-24T17:12:48.414Z,13.50
2022-09-24T17:15:19.229Z,13.50
2022-09-24T17:17:50.214Z,13.40
2022-09-24T17:20:18.698Z,13.40
2022-09-24T17:22:47.412Z,13.40
2022-09-24T17:25:14.210Z,13.40
2022-09-24T17:27:41.021Z,13.40
2022-09-24T17:30:09.226Z,13.40
2022-09-24T17:32:35.937Z,13.30
2022-09-24T17:35:02.648Z,13.30
2022-09-24T17:37:29.474Z,13.30
2022-09-24T17:39:57.367Z,13.30
2022-09-24T17:42:24.686Z,13.30
2022-09-24T17:44:51.419Z,13.30
2022-09-24T17:47:18.175Z,13.30
2022-09-24T17:49:45.132Z,13.30
2022-09-24T17:52:13.430Z,13.20
2022-09-24T17:54:40.249Z,13.20
2022-09-24T17:57:07.235Z,13.20
2022-09-24T17:59:34.016Z,13.20
2022-09-24T18:02:00.817Z,13.20
2022-09-24T18:04:31.454Z,13.20
2022-09-24T18:06:58.152Z,13.20
2022-09-24T18:09:24.881Z,13.20
2022-09-24T18:11:52.453Z,13.20
2022-09-24T18:14:22.460Z,13.20
2022-09-24T18:16:50.191Z,13.20
2022-09-24T18:19:17.632Z,13.20
2022-09-24T18:21:45.761Z,13.10
2022-09-24T18:24:12.668Z,13.10
2022-09-24T18:26:43.002Z,13.10
2022-09-24T18:29:15.673Z,13.10
2022-09-24T18:31:43.101Z,13.10
2022-09-24T18:34:12.964Z,13.10
2022-09-24T18:36:40.751Z,13.10
2022-09-24T18:39:13.407Z,13.00
2022-09-24T18:41:41.162Z,13.00
2022-09-24T18:44:08.044Z,13.00
2022-09-24T18:46:35.276Z,13.00
2022-09-24T18:49:02.435Z,13.00
2022-09-24T18:51:31.724Z,13.00
2022-09-24T18:54:04.284Z,13.00
2022-09-24T18:56:31.614Z,13.00
2022-09-24T18:59:08.503Z,13.00
2022-09-24T19:01:37.123Z,13.00
2022-09-24T19:04:04.098Z,13.00
2022-09-24T19:06:31.742Z,13.00
2022-09-24T19:08:58.444Z,13.00
2022-09-24T19:11:25.181Z,13.00
2022-09-24T19:13:53.804Z,13.00
2022-09-24T19:16:23.597Z,13.00
2022-09-24T19:18:51.879Z,13.00
2022-09-24T19:21:19.271Z,13.00
2022-09-24T19:23:48.907Z,13.00
2022-09-24T19:26:18.561Z,13.00
2022-09-24T19:28:46.324Z,13.00
2022-09-24T19:31:26.951Z,13.00
2022-09-24T19:33:54.321Z,13.00
2022-09-24T19:36:22.236Z,13.00
2022-09-24T19:38:50.111Z,13.00
2022-09-24T19:41:21.293Z,13.00
2022-09-24T19:43:50.804Z,13.00
2022-09-24T19:46:19.244Z,13.00
2022-09-24T19:48:48.809Z,13.00
2022-09-24T19:51:29.971Z,13.00
2022-09-24T19:54:01.649Z,13.00
2022-09-24T19:56:29.556Z,13.00
2022-09-24T19:58:57.696Z,13.00
2022-09-24T20:01:30.686Z,12.90
2022-09-24T20:03:59.015Z,12.90
2022-09-24T20:06:29.046Z,13.00
2022-09-24T20:08:57.068Z,12.90
2022-09-24T20:11:24.755Z,12.90
2022-09-24T20:13:53.180Z,12.90
2022-09-24T20:16:22.335Z,12.90
2022-09-24T20:18:50.425Z,12.90
2022-09-24T20:21:19.329Z,12.90
2022-09-24T20:23:47.376Z,12.90
2022-09-24T20:26:34.988Z,12.90
2022-09-24T20:29:02.460Z,12.80
2022-09-24T20:31:29.955Z,12.80
2022-09-24T20:33:57.078Z,12.80
2022-09-24T20:36:25.452Z,12.80
2022-09-24T20:38:52.986Z,12.80
2022-09-24T20:41:23.182Z,12.80
2022-09-24T20:43:51.491Z,12.80
2022-09-24T20:46:28.001Z,12.80
2022-09-24T20:49:00.386Z,12.80
2022-09-24T20:51:33.823Z,12.80
2022-09-24T20:54:10.918Z,12.80
2022-09-24T20:56:40.454Z,12.80
2022-09-24T20:59:07.520Z,12.80
2022-09-24T21:01:34.283Z,12.80
2022-09-24T21:04:02.420Z,12.80
2022-09-24T21:06:29.823Z,12.80
2022-09-24T21:08:56.789Z,12.80
2022-09-24T21:11:26.458Z,12.80
2022-09-24T21:13:56.012Z,12.80
2022-09-24T21:16:25.115Z,12.80
2022-09-24T21:18:54.384Z,12.80
2022-09-24T21:21:26.936Z,12.90
2022-09-24T21:23:54.747Z,12.80
2022-09-24T21:26:23.461Z,12.80
2022-09-24T21:28:53.731Z,12.80
2022-09-24T21:31:22.860Z,12.90
2022-09-24T21:33:54.511Z,12.90
2022-09-24T21:36:24.273Z,12.90
2022-09-24T21:39:02.783Z,12.80
2022-09-24T21:41:32.163Z,12.90
2022-09-24T21:43:59.449Z,12.80
2022-09-24T21:46:27.908Z,12.90
2022-09-24T21:48:55.651Z,12.80
2022-09-24T21:51:23.208Z,12.80
2022-09-24T21:53:50.938Z,12.80
2022-09-24T21:56:18.908Z,12.80
2022-09-24T21:58:49.991Z,12.80
2022-09-24T22:01:29.964Z,12.80
2022-09-24T22:03:59.068Z,12.80
2022-09-24T22:06:28.883Z,12.80
2022-09-24T22:08:57.911Z,12.80
2022-09-24T22:11:27.283Z,12.80
2022-09-24T22:13:54.986Z,12.80
2022-09-24T22:16:21.749Z,12.80
2022-09-24T22:18:48.496Z,12.80
2022-09-24T22:21:15.443Z,12.70
2022-09-24T22:23:42.153Z,12.70
2022-09-24T22:26:09.904Z,12.70
2022-09-24T22:28:37.886Z,12.70
2022-09-24T22:31:11.207Z,12.70
2022-09-24T22:33:56.624Z,12.70
2022-09-24T22:36:23.544Z,12.70
2022-09-24T22:38:54.862Z,12.70
2022-09-24T22:41:21.803Z,12.70
2022-09-24T22:43:48.530Z,12.60
2022-09-24T22:46:16.498Z,12.60
2022-09-24T22:48:43.469Z,12.60
2022-09-24T22:51:10.355Z,12.60
2022-09-24T22:53:39.038Z,12.60
2022-09-24T22:56:14.289Z,12.60
2022-09-24T22:58:43.256Z,12.60
2022-09-24T23:01:31.949Z,12.60
2022-09-24T23:03:59.368Z,12.60
2022-09-24T23:06:26.499Z,12.60
2022-09-24T23:08:54.762Z,12.50
2022-09-24T23:11:32.567Z,12.50
2022-09-24T23:14:02.551Z,12.50
2022-09-24T23:16:31.653Z,12.40
2022-09-24T23:19:00.229Z,12.40
2022-09-24T23:21:28.653Z,12.40
2022-09-24T23:23:57.540Z,12.30
2022-09-24T23:26:25.608Z,12.30
2022-09-24T23:28:53.725Z,12.30
2022-09-24T23:31:25.269Z,12.30
2022-09-24T23:33:53.409Z,12.20
2022-09-24T23:36:20.273Z,12.20
2022-09-24T23:38:47.011Z,12.20
2022-09-24T23:41:14.387Z,12.20
2022-09-24T23:43:41.814Z,12.20
2022-09-24T23:46:09.705Z,12.20
2022-09-24T23:48:36.971Z,12.20
2022-09-24T23:51:04.754Z,12.20
2022-09-24T23:53:31.891Z,12.10
2022-09-24T23:55:59.004Z,12.10
2022-09-24T23:58:26.106Z,12.10
